Time;durP1;ratioP1;P1;durP2;ratioP2;P2;SDS_P1;SDS_P2;PMS_P1;PMS_P2;Temp;Humidity;BMP_temperature;BMP_pressure;BME280_temperature;BME280_humidity;BME280_pressure;Samples;Min_cycle;Max_cycle;Signal;HPM_P1;HPM_P2
2023/12/27 00:02:04;;;;;;;9.55;2.92;;;3.30;99.90;;;;;;5014598;28;20398;-62
2023/12/27 00:04:29;;;;;;;9.77;2.97;;;3.30;99.90;;;;;;5029339;28;20080;-61
2023/12/27 00:06:56;;;;;;;7.47;2.88;;;3.30;99.90;;;;;;5031044;28;20041;-61
2023/12/27 00:09:22;;;;;;;5.38;2.58;;;3.20;99.90;;;;;;5014403;28;20041;-61
2023/12/27 00:11:48;;;;;;;7.70;2.95;;;3.20;99.90;;;;;;5013076;28;20508;-61
2023/12/27 00:14:14;;;;;;;8.35;2.47;;;3.20;99.90;;;;;;4997752;28;20120;-61
2023/12/27 00:16:40;;;;;;;8.48;2.65;;;3.20;99.90;;;;;;5031777;28;20455;-61
2023/12/27 00:19:06;;;;;;;6.80;2.20;;;3.20;99.90;;;;;;5001205;28;20046;-61
2023/12/27 00:21:32;;;;;;;4.72;2.17;;;3.10;99.90;;;;;;5017642;28;20041;-61
2023/12/27 00:23:58;;;;;;;11.18;3.10;;;3.10;99.90;;;;;;5001146;28;20041;-61
2023/12/27 00:26:24;;;;;;;7.22;2.55;;;3.10;99.90;;;;;;5017665;28;20048;-61
2023/12/27 00:28:49;;;;;;;6.70;3.05;;;3.10;99.90;;;;;;5034868;28;20041;-61
2023/12/27 00:31:15;;;;;;;7.05;2.47;;;3.10;99.90;;;;;;5036313;28;20047;-61
2023/12/27 00:33:41;;;;;;;6.00;2.58;;;3.10;99.90;;;;;;5017549;28;20046;-61
2023/12/27 00:36:08;;;;;;;8.77;2.83;;;3.00;99.90;;;;;;5035845;28;20056;-61
2023/12/27 00:38:37;;;;;;;7.10;2.58;;;3.00;99.90;;;;;;5017171;28;20049;-61
2023/12/27 00:41:04;;;;;;;10.20;3.10;;;3.00;99.90;;;;;;5018156;28;20046;-61
2023/12/27 00:43:30;;;;;;;9.07;2.80;;;2.90;99.90;;;;;;5017118;28;20041;-61
2023/12/27 00:45:55;;;;;;;7.40;3.05;;;3.00;99.90;;;;;;5016942;28;20034;-61
2023/12/27 00:48:21;;;;;;;8.93;2.97;;;2.90;99.90;;;;;;5017494;28;20171;-61
2023/12/27 00:50:46;;;;;;;10.85;3.58;;;2.90;99.90;;;;;;5017385;28;20143;-61
2023/12/27 00:53:13;;;;;;;6.22;3.22;;;2.90;99.90;;;;;;5016843;28;20053;-61
2023/12/27 00:55:38;;;;;;;8.13;2.13;;;2.90;99.90;;;;;;5017276;28;20556;-61
2023/12/27 00:58:04;;;;;;;5.43;2.10;;;2.80;99.90;;;;;;5011637;28;20079;-61
2023/12/27 01:00:30;;;;;;;6.18;2.00;;;2.80;99.90;;;;;;5036102;28;20402;-61
2023/12/27 01:02:55;;;;;;;7.93;2.58;;;2.80;99.90;;;;;;5022866;28;20057;-61
2023/12/27 01:05:21;;;;;;;10.70;2.90;;;2.80;99.90;;;;;;5033486;28;20048;-61
2023/12/27 01:07:46;;;;;;;6.80;2.67;;;2.90;99.90;;;;;;5034164;28;20453;-61
2023/12/27 01:10:14;;;;;;;12.00;3.00;;;2.90;99.90;;;;;;5033407;28;20045;-61
2023/12/27 01:12:40;;;;;;;8.05;3.38;;;2.90;99.90;;;;;;5034717;28;20099;-61
2023/12/27 01:15:06;;;;;;;9.80;2.72;;;2.90;99.90;;;;;;5016428;28;20045;-61
2023/12/27 01:17:31;;;;;;;9.65;3.35;;;2.90;99.90;;;;;;5033100;28;20048;-61
2023/12/27 01:19:57;;;;;;;11.10;3.95;;;2.90;99.90;;;;;;5017196;28;20049;-61
2023/12/27 01:22:23;;;;;;;7.18;2.40;;;2.80;99.90;;;;;;5034084;28;20087;-61
2023/12/27 01:24:48;;;;;;;8.02;3.40;;;2.80;99.90;;;;;;5016792;28;20128;-61
2023/12/27 01:27:14;;;;;;;11.40;4.65;;;2.80;99.90;;;;;;5033942;28;20041;-61
2023/12/27 01:29:45;;;;;;;9.23;4.32;;;2.80;99.90;;;;;;5033657;28;20041;-61
2023/12/27 01:32:10;;;;;;;12.82;4.30;;;2.70;99.90;;;;;;5016982;28;20041;-61
2023/12/27 01:34:38;;;;;;;12.52;4.85;;;2.70;99.90;;;;;;5032291;28;20045;-61
2023/12/27 01:37:04;;;;;;;10.02;4.55;;;2.70;99.90;;;;;;5017076;28;20045;-61
2023/12/27 01:39:29;;;;;;;9.55;3.95;;;2.70;99.90;;;;;;5016472;28;20052;-61
2023/12/27 01:41:55;;;;;;;9.32;3.17;;;2.70;99.90;;;;;;5035655;28;20490;-61
2023/12/27 01:44:20;;;;;;;7.63;2.90;;;2.60;99.90;;;;;;5019729;28;20394;-61
2023/12/27 01:46:46;;;;;;;10.50;2.97;;;2.60;99.90;;;;;;5052972;28;20382;-61
2023/12/27 01:49:12;;;;;;;7.28;2.80;;;2.60;99.90;;;;;;5053228;28;20040;-61
2023/12/27 01:51:38;;;;;;;8.07;3.30;;;2.60;99.90;;;;;;5052694;28;20482;-61
2023/12/27 01:54:04;;;;;;;7.10;2.25;;;2.60;99.90;;;;;;5036057;28;20126;-61
2023/12/27 01:56:30;;;;;;;7.93;2.92;;;2.50;99.90;;;;;;5034975;28;20049;-61
2023/12/27 01:58:57;;;;;;;7.55;3.03;;;2.50;99.90;;;;;;5036436;28;20474;-61
2023/12/27 02:01:23;;;;;;;7.38;2.63;;;2.50;99.90;;;;;;5034690;28;20048;-61
2023/12/27 02:03:48;;;;;;;7.88;2.25;;;2.50;99.90;;;;;;5015069;28;20556;-61
2023/12/27 02:06:14;;;;;;;7.15;3.25;;;2.50;99.90;;;;;;5016188;28;20049;-61
2023/12/27 02:08:40;;;;;;;7.30;3.13;;;2.40;99.90;;;;;;5016147;28;20360;-61
2023/12/27 02:11:06;;;;;;;6.03;2.17;;;2.40;99.90;;;;;;5015474;28;20041;-61
2023/12/27 02:13:31;;;;;;;8.90;3.10;;;2.40;99.90;;;;;;5033348;28;20052;-61
2023/12/27 02:15:58;;;;;;;7.47;2.03;;;2.40;99.90;;;;;;5032459;28;20099;-61
2023/12/27 02:18:25;;;;;;;7.93;2.50;;;2.40;99.90;;;;;;4998683;28;20041;-61
2023/12/27 02:20:52;;;;;;;9.73;3.40;;;2.40;99.90;;;;;;5015932;28;20099;-61
2023/12/27 02:23:20;;;;;;;8.30;2.35;;;2.40;99.90;;;;;;5033189;28;20490;-61
2023/12/27 02:25:48;;;;;;;7.95;2.15;;;2.40;99.90;;;;;;5034731;28;20048;-61
2023/12/27 02:28:13;;;;;;;5.35;2.25;;;2.40;99.90;;;;;;5035180;28;20048;-61
2023/12/27 02:30:39;;;;;;;6.57;2.42;;;2.40;99.90;;;;;;5034560;28;20041;-61
2023/12/27 02:33:04;;;;;;;6.80;2.22;;;2.40;99.90;;;;;;5020602;28;20402;-61
2023/12/27 02:35:30;;;;;;;7.57;2.70;;;2.40;99.90;;;;;;4998943;28;20394;-61
2023/12/27 02:37:56;;;;;;;5.90;1.60;;;2.40;99.90;;;;;;5014951;28;20054;-61
2023/12/27 02:40:22;;;;;;;4.88;2.33;;;2.40;99.90;;;;;;5017902;28;20045;-61
2023/12/27 02:42:48;;;;;;;6.93;3.67;;;2.40;99.90;;;;;;5035052;28;20042;-61
2023/12/27 02:45:13;;;;;;;7.50;2.20;;;2.40;99.90;;;;;;5034257;28;20068;-61
2023/12/27 02:47:39;;;;;;;7.20;2.25;;;2.40;99.90;;;;;;5035211;28;20079;-61
2023/12/27 02:50:05;;;;;;;9.52;2.08;;;2.50;99.90;;;;;;5035400;28;20037;-61
2023/12/27 02:52:31;;;;;;;6.88;2.22;;;2.50;99.90;;;;;;5033837;28;20103;-61
2023/12/27 02:54:57;;;;;;;9.30;2.28;;;2.50;99.90;;;;;;5028939;28;20422;-61
2023/12/27 02:57:23;;;;;;;6.95;2.20;;;2.50;99.90;;;;;;5032739;28;20048;-61
2023/12/27 02:59:49;;;;;;;7.70;2.95;;;2.50;99.90;;;;;;5014234;28;20041;-61
2023/12/27 03:02:14;;;;;;;8.10;2.17;;;2.50;99.90;;;;;;5031054;28;20053;-61
2023/12/27 03:04:40;;;;;;;5.60;2.08;;;2.50;99.90;;;;;;5031169;28;20045;-61
2023/12/27 03:07:07;;;;;;;7.80;3.63;;;2.50;99.90;;;;;;5032039;28;20387;-61
2023/12/27 03:09:33;;;;;;;7.70;2.50;;;2.60;99.90;;;;;;5014987;28;20120;-61
2023/12/27 03:11:59;;;;;;;7.80;2.33;;;2.50;99.90;;;;;;5015076;28;20125;-61
2023/12/27 03:14:26;;;;;;;9.90;2.35;;;2.50;99.90;;;;;;5026700;28;20080;-61
2023/12/27 03:16:51;;;;;;;6.53;2.15;;;2.50;99.90;;;;;;5051215;28;20041;-61
2023/12/27 03:19:17;;;;;;;5.57;1.90;;;2.50;99.90;;;;;;5050902;28;20041;-61
2023/12/27 03:21:43;;;;;;;7.40;2.33;;;2.60;99.90;;;;;;5033692;28;20120;-61
2023/12/27 03:24:08;;;;;;;6.22;1.90;;;2.50;99.90;;;;;;5033868;28;20048;-61
2023/12/27 03:26:34;;;;;;;5.85;2.22;;;2.60;99.90;;;;;;5030812;28;20037;-61
2023/12/27 03:29:00;;;;;;;6.70;2.85;;;2.60;99.90;;;;;;5031962;28;20490;-61
2023/12/27 03:31:28;;;;;;;7.68;2.63;;;2.60;99.90;;;;;;5014611;28;20494;-61
2023/12/27 03:33:58;;;;;;;5.95;2.17;;;2.60;99.90;;;;;;5013639;28;20060;-61
2023/12/27 03:36:26;;;;;;;8.32;2.42;;;2.50;99.90;;;;;;5014243;28;20124;-61
2023/12/27 03:38:53;;;;;;;9.32;2.53;;;2.50;99.90;;;;;;5032150;28;20048;-61
2023/12/27 03:41:18;;;;;;;8.18;2.20;;;2.50;99.90;;;;;;4997139;28;20047;-61
2023/12/27 03:43:44;;;;;;;5.50;2.00;;;2.50;99.90;;;;;;5030906;28;20411;-61
2023/12/27 03:46:10;;;;;;;11.07;3.33;;;2.50;99.90;;;;;;5014612;28;20052;-61
2023/12/27 03:48:36;;;;;;;5.70;2.35;;;2.50;99.90;;;;;;5013716;28;20041;-61
2023/12/27 03:51:02;;;;;;;7.95;2.20;;;2.50;99.90;;;;;;5031948;28;20414;-61
2023/12/27 03:53:28;;;;;;;8.70;2.67;;;2.50;99.90;;;;;;5014447;28;20045;-61
2023/12/27 03:55:54;;;;;;;8.05;2.42;;;2.50;99.90;;;;;;5013520;28;20095;-61
2023/12/27 03:58:19;;;;;;;7.25;2.47;;;2.50;99.90;;;;;;5030609;28;20059;-61
2023/12/27 04:00:45;;;;;;;10.45;2.90;;;2.50;99.90;;;;;;5033908;28;20116;-61
2023/12/27 04:03:10;;;;;;;6.63;2.90;;;2.50;99.90;;;;;;5036891;28;20099;-61
2023/12/27 04:05:36;;;;;;;5.75;2.35;;;2.50;99.90;;;;;;5050594;28;20470;-61
2023/12/27 04:08:04;;;;;;;10.18;3.05;;;2.50;99.90;;;;;;5050640;28;20037;-61
2023/12/27 04:10:31;;;;;;;9.77;2.85;;;2.50;99.90;;;;;;5050496;28;20041;-61
2023/12/27 04:12:58;;;;;;;9.77;3.00;;;2.50;99.90;;;;;;5033872;28;20049;-61
2023/12/27 04:15:23;;;;;;;7.97;2.80;;;2.60;99.90;;;;;;5034027;28;20428;-61
2023/12/27 04:17:49;;;;;;;8.98;2.97;;;2.60;99.90;;;;;;5049579;28;20064;-61
2023/12/27 04:20:15;;;;;;;12.52;4.32;;;2.60;99.90;;;;;;5050450;28;20037;-61
2023/12/27 04:22:40;;;;;;;7.35;2.88;;;2.60;99.90;;;;;;5050512;28;20111;-61
2023/12/27 04:25:06;;;;;;;8.45;2.72;;;2.60;99.90;;;;;;5049661;28;20112;-61
2023/12/27 04:27:32;;;;;;;9.32;2.88;;;2.70;99.90;;;;;;5033524;28;20094;-61
2023/12/27 04:29:57;;;;;;;9.07;3.17;;;2.70;99.90;;;;;;5050031;28;20029;-61
2023/12/27 04:32:23;;;;;;;7.75;2.80;;;2.70;99.90;;;;;;5018613;28;20046;-61
2023/12/27 04:34:49;;;;;;;8.82;2.75;;;2.80;99.90;;;;;;5013820;28;20728;-61
2023/12/27 04:37:14;;;;;;;9.90;2.53;;;2.70;99.90;;;;;;5013058;28;20112;-61
2023/12/27 04:39:40;;;;;;;11.70;2.92;;;2.80;99.90;;;;;;4997609;28;20045;-61
2023/12/27 04:42:06;;;;;;;11.95;3.55;;;2.80;99.90;;;;;;5014056;28;20041;-61
2023/12/27 04:44:31;;;;;;;8.43;2.58;;;2.80;99.90;;;;;;4996539;28;20029;-61
2023/12/27 04:46:57;;;;;;;7.28;2.40;;;2.80;99.90;;;;;;5014100;28;20041;-61
2023/12/27 04:49:23;;;;;;;9.48;3.08;;;2.90;99.90;;;;;;5013779;28;20092;-61
2023/12/27 04:51:48;;;;;;;15.85;3.20;;;2.90;99.90;;;;;;5013020;28;20041;-61
2023/12/27 04:54:14;;;;;;;9.05;3.10;;;2.90;99.90;;;;;;5013661;28;20038;-61
2023/12/27 04:56:39;;;;;;;9.07;3.08;;;2.90;99.90;;;;;;5013684;28;20049;-61
2023/12/27 04:59:05;;;;;;;7.45;2.72;;;2.90;99.90;;;;;;5013201;28;20045;-61
2023/12/27 05:01:31;;;;;;;10.52;3.05;;;2.90;99.90;;;;;;5045055;28;20076;-61
2023/12/27 05:03:56;;;;;;;7.88;3.38;;;3.00;99.90;;;;;;5035191;28;20081;-61
2023/12/27 05:06:22;;;;;;;12.23;3.97;;;3.00;99.90;;;;;;5054150;28;20068;-61
2023/12/27 05:08:48;;;;;;;8.27;2.72;;;3.00;99.90;;;;;;5037189;28;20067;-61
2023/12/27 05:11:15;;;;;;;7.53;2.55;;;3.00;99.90;;;;;;5020661;28;20397;-61
2023/12/27 05:13:41;;;;;;;11.23;3.20;;;3.00;99.90;;;;;;5014923;28;20088;-61
2023/12/27 05:16:14;;;;;;;10.95;3.15;;;3.00;99.90;;;;;;5017228;28;20053;-61
2023/12/27 05:18:41;;;;;;;8.85;3.08;;;3.00;99.90;;;;;;5017052;28;20072;-61
2023/12/27 05:21:08;;;;;;;11.02;3.97;;;3.00;99.90;;;;;;5016246;28;20048;-61
2023/12/27 05:23:33;;;;;;;13.38;4.20;;;3.00;99.90;;;;;;5034574;28;20461;-61
2023/12/27 05:25:59;;;;;;;9.25;4.00;;;3.00;99.90;;;;;;5017294;28;20132;-61
2023/12/27 05:28:25;;;;;;;12.90;3.65;;;3.00;99.90;;;;;;5015910;28;20069;-61
2023/12/27 05:30:51;;;;;;;7.03;2.85;;;3.00;99.90;;;;;;5000202;28;20044;-61
2023/12/27 05:33:16;;;;;;;13.43;5.05;;;3.00;99.90;;;;;;5016682;28;20073;-61
2023/12/27 05:35:42;;;;;;;15.80;7.32;;;3.00;99.90;;;;;;5015914;28;20045;-61
2023/12/27 05:38:07;;;;;;;11.85;4.05;;;3.00;99.90;;;;;;5016619;28;20090;-61
2023/12/27 05:40:33;;;;;;;12.20;2.67;;;3.10;99.90;;;;;;5015798;28;20041;-61
2023/12/27 05:42:59;;;;;;;7.97;2.80;;;3.10;99.90;;;;;;5034612;28;20307;-61
2023/12/27 05:45:24;;;;;;;18.30;3.85;;;3.10;99.90;;;;;;5032481;28;20083;-61
2023/12/27 05:47:51;;;;;;;11.30;3.90;;;3.10;99.90;;;;;;5053160;28;20037;-61
2023/12/27 05:50:17;;;;;;;11.80;3.47;;;3.10;99.90;;;;;;5053868;28;20037;-61
2023/12/27 05:52:43;;;;;;;9.20;3.25;;;3.10;99.90;;;;;;5036139;28;20389;-61
2023/12/27 05:55:09;;;;;;;15.43;3.47;;;3.10;99.90;;;;;;5035235;28;20049;-61
2023/12/27 05:57:35;;;;;;;14.77;4.40;;;3.20;99.90;;;;;;5036008;28;20041;-61
2023/12/27 06:00:01;;;;;;;11.80;3.80;;;3.20;99.90;;;;;;5036321;28;20052;-61
2023/12/27 06:02:27;;;;;;;12.95;4.05;;;3.20;99.90;;;;;;5001645;28;20053;-61
2023/12/27 06:04:55;;;;;;;7.15;3.05;;;3.20;99.90;;;;;;4996481;28;20100;-61
2023/12/27 06:07:21;;;;;;;14.13;3.83;;;3.20;99.90;;;;;;4996320;28;20091;-61
2023/12/27 06:09:47;;;;;;;12.65;3.38;;;3.30;99.90;;;;;;5013235;28;20042;-61
2023/12/27 06:12:12;;;;;;;11.15;2.67;;;3.30;99.90;;;;;;4996399;28;20038;-61
2023/12/27 06:14:41;;;;;;;11.38;3.58;;;3.30;99.90;;;;;;5006731;28;20045;-61
2023/12/27 06:17:06;;;;;;;10.95;3.28;;;3.40;99.90;;;;;;5014605;28;20051;-61
2023/12/27 06:19:32;;;;;;;14.27;3.60;;;3.40;99.90;;;;;;5015487;28;20124;-61
2023/12/27 06:21:58;;;;;;;9.88;3.00;;;3.40;99.90;;;;;;5033673;28;20080;-61
2023/12/27 06:24:24;;;;;;;9.98;2.63;;;3.40;99.90;;;;;;5014772;28;20406;-61
2023/12/27 06:26:49;;;;;;;9.15;2.75;;;3.40;99.90;;;;;;5015727;28;20072;-61
2023/12/27 06:29:15;;;;;;;16.52;2.88;;;3.40;99.90;;;;;;4999329;28;20060;-61
2023/12/27 06:31:41;;;;;;;9.40;2.53;;;3.40;99.90;;;;;;5014757;28;20453;-61
2023/12/27 06:34:07;;;;;;;14.18;3.55;;;3.50;99.90;;;;;;5015864;28;20056;-61
2023/12/27 06:36:32;;;;;;;10.20;3.17;;;3.50;99.90;;;;;;5015460;28;20478;-61
2023/12/27 06:38:58;;;;;;;9.27;2.90;;;3.50;99.90;;;;;;5014833;28;20042;-61
2023/12/27 06:41:24;;;;;;;5.47;2.35;;;3.60;99.90;;;;;;5015511;28;20048;-61
2023/12/27 06:43:50;;;;;;;14.02;4.20;;;3.60;99.90;;;;;;5014086;28;20056;-61
2023/12/27 06:46:17;;;;;;;15.95;8.98;;;3.60;99.90;;;;;;5015189;28;20045;-61
2023/12/27 06:48:42;;;;;;;23.90;10.38;;;3.60;99.90;;;;;;4996697;28;20494;-61
2023/12/27 06:51:10;;;;;;;14.52;6.13;;;3.60;99.90;;;;;;4995145;28;20045;-61
2023/12/27 06:53:36;;;;;;;22.90;9.88;;;3.60;99.90;;;;;;4995471;28;20038;-61
2023/12/27 06:56:01;;;;;;;13.30;4.43;;;3.70;99.90;;;;;;4995892;28;20087;-61
2023/12/27 06:58:27;;;;;;;13.32;4.95;;;3.70;99.90;;;;;;4994769;28;20053;-61
2023/12/27 07:00:53;;;;;;;7.30;3.17;;;3.70;99.90;;;;;;4995346;28;20038;-61
2023/12/27 07:03:19;;;;;;;14.57;3.60;;;3.70;99.90;;;;;;5025011;28;20101;-61
2023/12/27 07:05:44;;;;;;;8.60;3.30;;;3.70;99.90;;;;;;4998054;28;20505;-61
2023/12/27 07:08:10;;;;;;;9.82;2.75;;;3.70;99.90;;;;;;5017612;28;20116;-61
2023/12/27 07:10:36;;;;;;;14.48;7.00;;;3.80;99.90;;;;;;5034795;28;20079;-61
2023/12/27 07:13:01;;;;;;;11.43;4.63;;;3.80;99.90;;;;;;5034142;28;20036;-61
2023/12/27 07:15:27;;;;;;;9.73;4.10;;;3.80;99.90;;;;;;5034550;28;20609;-61
2023/12/27 07:17:54;;;;;;;7.90;2.65;;;3.80;99.90;;;;;;5034128;28;20049;-61
2023/12/27 07:20:21;;;;;;;9.88;2.35;;;3.80;99.90;;;;;;5017202;28;20494;-61
2023/12/27 07:22:47;;;;;;;13.95;6.95;;;3.80;99.90;;;;;;5051826;28;20051;-61
2023/12/27 07:25:12;;;;;;;7.80;3.35;;;3.80;99.90;;;;;;5017852;28;20041;-61
2023/12/27 07:27:38;;;;;;;14.07;6.45;;;3.90;99.90;;;;;;5033207;28;20052;-61
2023/12/27 07:30:05;;;;;;;9.00;3.15;;;3.80;99.90;;;;;;5034583;28;20041;-61
2023/12/27 07:32:30;;;;;;;12.05;5.18;;;3.90;99.90;;;;;;5034055;28;20093;-61
2023/12/27 07:34:57;;;;;;;17.67;9.00;;;3.90;99.90;;;;;;5033829;28;20040;-61
2023/12/27 07:37:24;;;;;;;44.03;18.80;;;3.90;99.90;;;;;;5052147;28;20094;-61
2023/12/27 07:39:49;;;;;;;17.65;6.95;;;3.90;99.90;;;;;;5019171;28;20075;-61
2023/12/27 07:42:16;;;;;;;17.15;6.28;;;3.90;99.90;;;;;;5033377;28;20033;-61
2023/12/27 07:44:42;;;;;;;16.73;7.13;;;4.00;99.90;;;;;;5033885;28;20049;-61
2023/12/27 07:47:07;;;;;;;9.20;3.10;;;4.00;99.90;;;;;;5033305;28;20379;-61
2023/12/27 07:49:33;;;;;;;9.13;2.90;;;4.00;99.90;;;;;;5034114;28;20041;-61
2023/12/27 07:51:59;;;;;;;11.40;3.45;;;4.00;99.90;;;;;;5049706;28;20447;-61
2023/12/27 07:54:25;;;;;;;14.75;3.45;;;4.10;99.90;;;;;;5041387;28;20057;-60
2023/12/27 07:56:51;;;;;;;7.32;2.22;;;4.10;99.90;;;;;;5014560;28;20051;-61
2023/12/27 07:59:17;;;;;;;8.70;2.35;;;4.10;99.90;;;;;;5014205;28;20124;-61
2023/12/27 08:01:43;;;;;;;6.93;2.03;;;4.20;99.90;;;;;;5043987;28;20044;-60
2023/12/27 08:04:09;;;;;;;7.18;2.65;;;4.20;99.90;;;;;;5033707;28;20057;-61
2023/12/27 08:06:35;;;;;;;4.90;2.05;;;4.20;99.90;;;;;;5033192;28;20048;-61
2023/12/27 08:09:00;;;;;;;11.05;3.83;;;4.20;99.90;;;;;;5033736;28;20096;-61
2023/12/27 08:11:26;;;;;;;9.68;3.03;;;4.20;99.90;;;;;;5048797;28;20033;-61
2023/12/27 08:13:52;;;;;;;13.98;2.53;;;4.30;99.90;;;;;;5050783;28;20087;-61
2023/12/27 08:16:17;;;;;;;7.68;2.72;;;4.30;99.90;;;;;;5032986;28;20037;-61
2023/12/27 08:18:43;;;;;;;6.20;2.00;;;4.30;99.90;;;;;;5033713;28;20128;-61
2023/12/27 08:21:09;;;;;;;5.25;1.95;;;4.30;99.90;;;;;;5033782;28;20048;-61
2023/12/27 08:23:38;;;;;;;5.30;1.60;;;4.30;99.90;;;;;;5046560;28;20402;-61
2023/12/27 08:26:07;;;;;;;4.90;1.70;;;4.30;99.90;;;;;;5031886;28;20090;-61
2023/12/27 08:28:36;;;;;;;5.40;1.65;;;4.30;99.90;;;;;;5014074;28;20045;-61
2023/12/27 08:31:06;;;;;;;5.03;1.58;;;4.40;99.90;;;;;;5015766;28;20037;-61
2023/12/27 08:33:35;;;;;;;8.23;1.85;;;4.30;99.90;;;;;;5033624;28;20098;-61
2023/12/27 08:36:01;;;;;;;6.63;1.63;;;4.40;99.90;;;;;;5033190;28;20522;-59
2023/12/27 08:38:28;;;;;;;14.45;2.70;;;4.40;99.90;;;;;;5026125;28;20042;-59
2023/12/27 08:40:54;;;;;;;8.43;2.65;;;4.40;99.90;;;;;;5018124;28;20069;-59
2023/12/27 08:43:20;;;;;;;10.73;2.58;;;4.40;99.90;;;;;;5021135;28;20048;-59
2023/12/27 08:45:46;;;;;;;9.00;3.60;;;4.50;99.90;;;;;;5037803;28;20044;-59
2023/12/27 08:48:12;;;;;;;9.70;2.38;;;4.50;99.90;;;;;;5037016;28;20142;-60
2023/12/27 08:50:40;;;;;;;7.95;2.78;;;4.50;99.90;;;;;;5034274;28;20086;-60
2023/12/27 08:53:06;;;;;;;10.63;2.65;;;4.50;99.90;;;;;;5018906;28;20045;-60
2023/12/27 08:55:32;;;;;;;6.70;2.65;;;4.60;99.90;;;;;;5021715;28;20045;-60
2023/12/27 08:57:58;;;;;;;7.28;2.67;;;4.50;99.90;;;;;;5026341;28;20497;-60
2023/12/27 09:00:24;;;;;;;11.85;3.20;;;4.60;99.90;;;;;;5033782;28;20044;-60
2023/12/27 09:02:49;;;;;;;7.35;2.53;;;4.60;99.90;;;;;;5035170;28;20111;-60
2023/12/27 09:05:15;;;;;;;10.43;2.83;;;4.60;99.90;;;;;;5011976;28;20080;-60
2023/12/27 09:07:41;;;;;;;7.35;2.85;;;4.60;99.90;;;;;;5051238;28;20428;-60
2023/12/27 09:10:06;;;;;;;13.68;2.80;;;4.60;99.90;;;;;;5051144;28;20474;-60
2023/12/27 09:12:32;;;;;;;7.93;2.25;;;4.60;99.90;;;;;;5050330;28;20067;-60
2023/12/27 09:14:58;;;;;;;8.57;2.05;;;4.70;99.90;;;;;;5034384;28;20041;-59
2023/12/27 09:17:23;;;;;;;9.93;3.13;;;4.70;99.90;;;;;;5049328;28;20064;-60
2023/12/27 09:19:49;;;;;;;9.43;3.42;;;4.70;99.90;;;;;;5030393;28;20048;-60
2023/12/27 09:22:15;;;;;;;9.82;3.80;;;4.70;99.90;;;;;;5016885;28;20045;-60
2023/12/27 09:24:41;;;;;;;8.93;2.50;;;4.70;99.90;;;;;;5031892;28;20360;-60
2023/12/27 09:27:07;;;;;;;6.82;2.78;;;4.70;99.90;;;;;;5015280;28;20041;-60
2023/12/27 09:29:33;;;;;;;13.15;3.70;;;4.80;99.90;;;;;;5021039;28;20052;-60
2023/12/27 09:31:59;;;;;;;6.65;2.40;;;4.70;99.90;;;;;;5029656;28;20040;-59
2023/12/27 09:34:25;;;;;;;6.68;2.33;;;4.70;99.90;;;;;;5033131;28;20095;-59
2023/12/27 09:36:50;;;;;;;12.02;2.25;;;4.80;99.90;;;;;;5050207;28;20080;-59
2023/12/27 09:39:16;;;;;;;7.60;2.30;;;4.80;99.90;;;;;;5051368;28;20041;-59
2023/12/27 09:41:42;;;;;;;7.70;2.72;;;4.80;99.90;;;;;;5026523;28;20045;-59
2023/12/27 09:44:09;;;;;;;8.57;2.83;;;4.80;99.90;;;;;;5014113;28;20037;-59
2023/12/27 09:46:37;;;;;;;11.85;3.33;;;4.90;99.90;;;;;;5013268;28;20045;-59
2023/12/27 09:49:02;;;;;;;10.20;3.40;;;4.90;99.90;;;;;;4997603;28;20045;-59
2023/12/27 09:51:29;;;;;;;11.63;2.97;;;4.90;99.90;;;;;;5013035;28;20394;-59
2023/12/27 09:53:55;;;;;;;10.95;3.00;;;5.00;99.90;;;;;;5013242;28;20041;-60
2023/12/27 09:56:25;;;;;;;13.43;4.78;;;4.90;99.90;;;;;;5013997;28;20052;-60
2023/12/27 09:58:57;;;;;;;11.40;3.72;;;5.00;99.90;;;;;;5017285;28;20505;-59
2023/12/27 10:01:26;;;;;;;13.88;4.05;;;5.00;99.90;;;;;;5029652;28;20045;-59
2023/12/27 10:03:59;;;;;;;18.77;5.20;;;5.00;99.90;;;;;;5032741;28;20061;-59
2023/12/27 10:06:43;;;;;;;10.82;3.75;;;5.10;99.90;;;;;;5033328;28;20044;-59
2023/12/27 10:09:09;;;;;;;10.75;3.10;;;5.10;99.90;;;;;;5015894;28;20045;-59
2023/12/27 10:11:35;;;;;;;18.13;6.70;;;5.10;99.90;;;;;;5033046;28;20080;-59
2023/12/27 10:14:04;;;;;;;31.25;11.52;;;5.10;99.90;;;;;;5028759;28;20045;-59
2023/12/27 10:16:30;;;;;;;11.07;5.57;;;5.20;99.90;;;;;;5022306;28;20508;-59
2023/12/27 10:18:57;;;;;;;9.38;5.20;;;5.20;99.90;;;;;;5030373;28;20045;-59
2023/12/27 10:21:23;;;;;;;10.15;5.00;;;5.20;99.90;;;;;;5012142;28;20574;-59
2023/12/27 10:23:48;;;;;;;16.00;5.15;;;5.30;99.90;;;;;;5012907;28;20045;-59
2023/12/27 10:26:14;;;;;;;10.15;4.38;;;5.30;99.90;;;;;;5035793;28;20047;-59
2023/12/27 10:28:40;;;;;;;10.80;4.80;;;5.30;99.90;;;;;;5031957;28;20497;-59
2023/12/27 10:31:06;;;;;;;10.82;5.15;;;5.30;99.90;;;;;;5018279;28;20037;-59
2023/12/27 10:33:42;;;;;;;16.75;4.63;;;5.40;99.90;;;;;;5034784;28;20502;-59
2023/12/27 10:36:09;;;;;;;11.90;4.97;;;5.40;99.90;;;;;;5032937;28;20478;-59
2023/12/27 10:38:35;;;;;;;12.93;4.57;;;5.40;99.90;;;;;;5032547;28;20450;-59
2023/12/27 10:41:06;;;;;;;11.73;5.43;;;5.40;99.90;;;;;;5035863;28;20274;-59
2023/12/27 10:43:32;;;;;;;14.10;4.72;;;5.50;99.90;;;;;;5027477;28;20449;-59
2023/12/27 10:45:58;;;;;;;13.63;5.50;;;5.50;99.90;;;;;;5015214;28;20076;-59
2023/12/27 10:48:26;;;;;;;15.02;6.80;;;5.50;99.90;;;;;;5018456;28;20063;-59
2023/12/27 10:50:52;;;;;;;15.00;6.07;;;5.60;99.90;;;;;;5032060;28;20512;-59
2023/12/27 10:53:20;;;;;;;12.00;5.25;;;5.60;99.90;;;;;;5022418;28;20057;-60
2023/12/27 10:55:47;;;;;;;11.18;5.10;;;5.60;99.90;;;;;;5026056;28;20041;-59
2023/12/27 10:58:24;;;;;;;11.52;4.90;;;5.60;99.90;;;;;;5031787;28;20378;-59
2023/12/27 11:00:51;;;;;;;9.23;4.53;;;5.60;99.90;;;;;;5031556;28;20053;-59
2023/12/27 11:03:19;;;;;;;14.02;5.15;;;5.60;99.90;;;;;;5031878;28;20053;-59
2023/12/27 11:05:45;;;;;;;17.83;6.28;;;5.60;99.90;;;;;;5031547;28;20398;-59
2023/12/27 11:08:15;;;;;;;11.75;5.53;;;5.60;99.90;;;;;;5014854;28;20042;-59
2023/12/27 11:10:50;;;;;;;14.85;5.60;;;5.60;99.90;;;;;;5030319;28;20197;-59
2023/12/27 11:13:17;;;;;;;13.30;5.60;;;5.60;99.90;;;;;;5011513;28;20029;-59
2023/12/27 11:15:45;;;;;;;14.10;4.95;;;5.60;99.90;;;;;;5011842;28;20085;-59
2023/12/27 11:18:11;;;;;;;10.73;4.65;;;5.60;99.90;;;;;;5011747;28;20470;-60
2023/12/27 11:20:39;;;;;;;13.70;5.85;;;5.60;99.90;;;;;;5011842;28;20065;-60
2023/12/27 11:23:05;;;;;;;13.88;6.00;;;5.60;99.90;;;;;;5012697;28;20049;-59
2023/12/27 11:25:31;;;;;;;14.95;6.00;;;5.60;99.90;;;;;;4994699;28;20045;-59
2023/12/27 11:27:58;;;;;;;15.30;6.65;;;5.60;99.90;;;;;;5012578;28;20054;-60
2023/12/27 11:30:26;;;;;;;17.08;5.88;;;5.60;99.90;;;;;;5012591;28;20041;-59
2023/12/27 11:32:53;;;;;;;14.50;6.05;;;5.60;99.90;;;;;;5011864;28;20128;-60
2023/12/27 11:35:27;;;;;;;13.25;6.13;;;5.60;99.90;;;;;;5012325;28;20049;-59
2023/12/27 11:38:13;;;;;;;16.53;6.27;;;5.60;99.90;;;;;;5029434;28;20044;-59
2023/12/27 11:40:39;;;;;;;20.55;6.63;;;5.60;99.90;;;;;;5030011;28;20041;-60
2023/12/27 11:43:07;;;;;;;15.88;6.60;;;5.60;99.90;;;;;;5013873;28;20036;-60
2023/12/27 11:45:56;;;;;;;18.63;6.95;;;5.60;99.90;;;;;;5011523;28;20541;-59
2023/12/27 11:48:22;;;;;;;13.85;5.75;;;5.60;99.90;;;;;;4994520;28;20128;-60
2023/12/27 11:50:48;;;;;;;14.32;7.35;;;5.60;99.90;;;;;;5031345;28;20111;-59
2023/12/27 11:53:14;;;;;;;17.13;8.25;;;5.60;99.90;;;;;;5047698;28;20071;-59
2023/12/27 11:55:42;;;;;;;14.02;7.00;;;5.60;99.90;;;;;;5031552;28;20536;-59
2023/12/27 11:58:08;;;;;;;13.75;6.53;;;5.60;99.90;;;;;;5033685;28;20041;-59
2023/12/27 12:00:35;;;;;;;12.25;7.15;;;5.50;99.90;;;;;;5016720;28;20490;-59
2023/12/27 12:03:07;;;;;;;13.55;7.43;;;5.60;99.90;;;;;;5033963;28;20091;-59
2023/12/27 12:05:57;;;;;;;18.15;7.70;;;5.60;99.90;;;;;;5015447;28;20104;-59
2023/12/27 12:08:35;;;;;;;19.80;8.13;;;5.50;99.90;;;;;;5037215;28;20099;-59
2023/12/27 12:11:12;;;;;;;15.05;6.85;;;5.50;99.90;;;;;;5014326;28;20052;-59
2023/12/27 12:13:38;;;;;;;11.63;6.75;;;5.50;99.90;;;;;;5033900;28;20049;-59
2023/12/27 12:16:08;;;;;;;11.93;7.88;;;5.60;99.90;;;;;;5036936;28;20120;-59
2023/12/27 12:18:35;;;;;;;12.80;7.22;;;5.60;99.90;;;;;;5037852;28;20048;-59
2023/12/27 12:21:01;;;;;;;14.70;7.55;;;5.60;99.90;;;;;;5038236;28;20045;-59
2023/12/27 12:23:31;;;;;;;18.38;8.98;;;5.60;99.90;;;;;;5037143;28;20059;-59
2023/12/27 12:26:01;;;;;;;13.43;7.70;;;5.60;99.90;;;;;;5055429;28;20113;-59
2023/12/27 12:28:28;;;;;;;13.20;7.60;;;5.60;99.90;;;;;;5023054;28;20052;-59
2023/12/27 12:30:58;;;;;;;18.13;8.18;;;5.60;99.90;;;;;;5033569;28;20167;-59
2023/12/27 12:33:24;;;;;;;13.10;7.50;;;5.60;99.90;;;;;;5023119;28;20163;-59
2023/12/27 12:35:56;;;;;;;13.85;7.90;;;5.70;99.90;;;;;;5012068;28;20096;-59
2023/12/27 12:38:22;;;;;;;15.52;7.70;;;5.70;99.90;;;;;;5019006;28;20047;-59
2023/12/27 12:40:48;;;;;;;10.52;7.00;;;5.70;99.90;;;;;;5033959;28;20068;-59
2023/12/27 12:43:17;;;;;;;11.23;6.65;;;5.70;99.90;;;;;;5033027;28;20120;-59
2023/12/27 12:45:44;;;;;;;15.30;7.45;;;5.80;99.90;;;;;;5023767;28;20555;-59
2023/12/27 12:48:11;;;;;;;12.38;7.68;;;5.70;99.90;;;;;;5034932;28;20118;-59
2023/12/27 12:50:37;;;;;;;18.83;9.23;;;5.70;99.90;;;;;;5022643;28;20030;-59